createdAt,value
2024-01-21T00:01:14.377Z,-7.04
2024-01-21T00:04:16.173Z,-7.00
2024-01-21T00:07:17.576Z,-7.03
2024-01-21T00:10:19.027Z,-6.94
2024-01-21T00:13:20.483Z,-6.91
2024-01-21T00:16:21.897Z,-7.01
2024-01-21T00:19:23.328Z,-7.00
2024-01-21T00:22:24.768Z,-7.20
2024-01-21T00:25:26.146Z,-7.27
2024-01-21T00:28:27.640Z,-7.39
2024-01-21T00:31:29.192Z,-7.38
2024-01-21T00:34:30.825Z,-7.34
2024-01-21T00:37:32.326Z,-7.31
2024-01-21T00:40:35.813Z,-7.31
2024-01-21T00:43:38.012Z,-7.32
2024-01-21T00:46:39.567Z,-7.37
2024-01-21T00:49:41.339Z,-7.42
2024-01-21T00:52:42.955Z,-7.51
2024-01-21T00:55:46.811Z,-7.47
2024-01-21T00:58:48.233Z,-7.38
2024-01-21T01:01:49.854Z,-7.46
2024-01-21T01:04:51.354Z,-7.46
2024-01-21T01:07:52.786Z,-7.40
2024-01-21T01:10:54.181Z,-7.32
2024-01-21T01:13:55.841Z,-7.37
2024-01-21T01:16:57.429Z,-7.29
2024-01-21T01:19:58.911Z,-7.35
2024-01-21T01:23:00.400Z,-7.50
2024-01-21T01:26:02.195Z,-7.44
2024-01-21T01:29:03.729Z,-7.49
2024-01-21T01:32:06.672Z,-7.58
2024-01-21T01:35:09.400Z,-7.69
2024-01-21T01:38:13.710Z,-7.69
2024-01-21T01:41:15.166Z,-7.93
2024-01-21T01:44:16.597Z,-7.97
2024-01-21T01:47:18.023Z,-8.07
2024-01-21T01:50:19.421Z,-8.25
2024-01-21T01:53:20.837Z,-8.28
2024-01-21T01:56:23.429Z,-8.37
2024-01-21T01:59:24.816Z,-8.40
2024-01-21T02:02:26.237Z,-8.43
2024-01-21T02:05:27.691Z,-8.42
2024-01-21T02:08:29.121Z,-8.42
2024-01-21T02:11:30.680Z,-8.38
2024-01-21T02:14:32.162Z,-8.44
2024-01-21T02:17:33.932Z,-8.44
2024-01-21T02:20:36.698Z,-8.59
2024-01-21T02:23:38.155Z,-8.61
2024-01-21T02:26:39.889Z,-8.61
2024-01-21T02:29:41.324Z,-8.60
2024-01-21T02:32:42.799Z,-8.62
2024-01-21T02:35:44.226Z,-8.61
2024-01-21T02:38:45.641Z,-8.56
2024-01-21T02:41:47.095Z,-8.50
2024-01-21T02:44:48.564Z,-8.56
2024-01-21T02:47:50.047Z,-8.52
2024-01-21T02:50:51.539Z,-8.49
2024-01-21T02:53:53.626Z,-8.51
2024-01-21T02:56:55.041Z,-8.59
2024-01-21T02:59:56.503Z,-8.58
2024-01-21T03:02:59.937Z,-8.60
2024-01-21T03:06:01.448Z,-8.56
2024-01-21T03:09:02.936Z,-8.59
2024-01-21T03:12:04.367Z,-8.59
2024-01-21T03:15:05.902Z,-8.59
2024-01-21T03:18:07.616Z,-8.61
2024-01-21T03:21:09.398Z,-8.59
2024-01-21T03:24:10.976Z,-8.65
2024-01-21T03:27:14.993Z,-8.70
2024-01-21T03:30:16.508Z,-8.70
2024-01-21T03:33:18.079Z,-8.71
2024-01-21T03:36:19.540Z,-8.66
2024-01-21T03:39:21.049Z,-8.70
2024-01-21T03:42:22.542Z,-8.75
2024-01-21T03:45:24.046Z,-8.63
2024-01-21T03:48:25.743Z,-8.58
2024-01-21T03:51:27.276Z,-8.64
2024-01-21T03:54:28.787Z,-8.59
2024-01-21T03:57:30.262Z,-8.57
2024-01-21T04:00:31.685Z,-8.50
2024-01-21T04:03:34.041Z,-8.44
2024-01-21T04:06:40.184Z,-8.41
2024-01-21T04:09:41.730Z,-8.42
2024-01-21T04:12:43.349Z,-8.40
2024-01-21T04:15:44.872Z,-8.44
2024-01-21T04:18:48.952Z,-8.43
2024-01-21T04:21:50.717Z,-8.42
2024-01-21T04:24:52.282Z,-8.45
2024-01-21T04:27:53.686Z,-8.38
2024-01-21T04:30:55.250Z,-8.34
2024-01-21T04:33:57.117Z,-8.39
2024-01-21T04:36:58.619Z,-8.33
2024-01-21T04:40:00.168Z,-8.32
2024-01-21T04:43:01.704Z,-8.36
2024-01-21T04:46:03.225Z,-8.30
2024-01-21T04:49:04.768Z,-8.29
2024-01-21T04:52:06.431Z,-8.22
2024-01-21T04:55:08.157Z,-8.16
2024-01-21T04:58:09.705Z,-8.16
2024-01-21T05:01:11.201Z,-8.20
2024-01-21T05:04:12.756Z,-8.14
2024-01-21T05:07:14.218Z,-8.15
2024-01-21T05:10:15.731Z,-8.13
2024-01-21T05:13:17.989Z,-8.06
2024-01-21T05:16:19.813Z,-8.02
2024-01-21T05:19:21.544Z,-8.04
2024-01-21T05:22:22.893Z,-8.03
2024-01-21T05:25:24.358Z,-8.05
2024-01-21T05:28:25.836Z,-7.97
2024-01-21T05:31:33.145Z,-7.89
2024-01-21T05:34:34.732Z,-7.87
2024-01-21T05:37:36.286Z,-7.83
2024-01-21T05:40:37.746Z,-7.84
2024-01-21T05:43:39.191Z,-7.93
2024-01-21T05:46:41.373Z,-7.78
2024-01-21T05:49:42.834Z,-7.66
2024-01-21T05:52:44.405Z,-7.72
2024-01-21T05:55:47.085Z,-7.81
2024-01-21T05:58:48.574Z,-7.66
2024-01-21T06:01:50.915Z,-7.60
2024-01-21T06:04:52.633Z,-7.63
2024-01-21T06:07:54.079Z,-7.56
2024-01-21T06:10:55.816Z,-7.61
2024-01-21T06:13:57.219Z,-7.59
2024-01-21T06:16:58.855Z,-7.56
2024-01-21T06:20:00.361Z,-7.50
2024-01-21T06:23:01.803Z,-7.53
2024-01-21T06:26:03.420Z,-7.53
2024-01-21T06:29:05.052Z,-7.48
2024-01-21T06:32:06.590Z,-7.43
2024-01-21T06:35:08.183Z,-7.53
2024-01-21T06:38:09.711Z,-7.44
2024-01-21T06:41:11.089Z,-7.33
2024-01-21T06:44:12.696Z,-7.42
2024-01-21T06:47:14.091Z,-7.33
2024-01-21T06:50:16.537Z,-7.37
2024-01-21T06:53:17.947Z,-7.44
2024-01-21T06:56:19.373Z,-7.40
2024-01-21T06:59:20.798Z,-7.24
2024-01-21T07:02:22.177Z,-7.21
2024-01-21T07:05:23.783Z,-7.18
2024-01-21T07:08:25.465Z,-7.22
2024-01-21T07:11:27.075Z,-7.18
2024-01-21T07:14:34.961Z,-7.16
2024-01-21T07:17:37.046Z,-7.13
2024-01-21T07:20:38.448Z,-7.04
2024-01-21T07:23:39.904Z,-7.03
2024-01-21T07:26:41.287Z,-7.06
2024-01-21T07:29:42.736Z,-6.92
2024-01-21T07:32:44.196Z,-6.86
2024-01-21T07:35:51.009Z,-6.81
2024-01-21T07:38:52.457Z,-6.73
2024-01-21T07:41:53.832Z,-6.79
2024-01-21T07:44:55.295Z,-6.68
2024-01-21T07:47:56.749Z,-6.49
2024-01-21T07:50:58.200Z,-6.45
2024-01-21T07:53:59.586Z,-6.30
2024-01-21T07:57:03.452Z,-6.36
2024-01-21T08:00:05.204Z,-6.18
2024-01-21T08:03:07.266Z,-6.22
2024-01-21T08:06:09.680Z,-6.06
2024-01-21T08:09:11.184Z,-5.94
2024-01-21T08:12:12.613Z,-5.92
2024-01-21T08:15:14.121Z,-5.84
2024-01-21T08:18:18.355Z,-5.78
2024-01-21T08:21:19.903Z,-5.75
2024-01-21T08:24:21.344Z,-5.59
2024-01-21T08:27:22.853Z,-5.51
2024-01-21T08:30:24.528Z,-5.61
2024-01-21T08:33:26.314Z,-5.42
2024-01-21T08:36:27.973Z,-5.31
2024-01-21T08:39:29.493Z,-5.41
2024-01-21T08:42:31.114Z,-5.18
2024-01-21T08:45:32.561Z,-5.33
2024-01-21T08:48:34.482Z,-5.20
2024-01-21T08:51:36.012Z,-5.20
2024-01-21T08:54:37.723Z,-5.03
2024-01-21T08:57:39.262Z,-4.91
2024-01-21T09:00:40.745Z,-4.84
2024-01-21T09:03:42.321Z,-4.79
2024-01-21T09:06:43.899Z,-4.88
2024-01-21T09:09:45.651Z,-4.61
2024-01-21T09:12:47.685Z,-4.58
2024-01-21T09:15:49.399Z,-4.56
2024-01-21T09:18:51.130Z,-4.33
2024-01-21T09:21:52.706Z,-4.22
2024-01-21T09:24:54.204Z,-4.21
2024-01-21T09:27:55.734Z,-4.00
2024-01-21T09:30:57.288Z,-4.12
2024-01-21T09:33:58.897Z,-4.07
2024-01-21T09:37:00.597Z,-3.85
2024-01-21T09:40:02.025Z,-3.82
2024-01-21T09:43:03.488Z,-3.65
2024-01-21T09:46:05.428Z,-3.65
2024-01-21T09:49:06.995Z,-3.30
2024-01-21T09:52:08.546Z,-3.22
2024-01-21T09:55:10.166Z,-2.63
2024-01-21T09:58:11.922Z,-1.99
2024-01-21T10:01:13.601Z,-0.86
2024-01-21T10:04:19.033Z,0.22
2024-01-21T10:07:20.955Z,-0.46
2024-01-21T10:10:22.613Z,0.03
2024-01-21T10:13:24.140Z,-0.27
2024-01-21T10:16:25.648Z,-0.32
2024-01-21T10:19:27.844Z,-0.22
2024-01-21T10:22:29.342Z,0.63
2024-01-21T10:25:30.783Z,0.90
2024-01-21T10:28:34.135Z,0.68
2024-01-21T10:31:35.769Z,1.13
2024-01-21T10:34:38.798Z,1.62
2024-01-21T10:37:40.899Z,2.14
2024-01-21T10:40:45.382Z,2.55
2024-01-21T10:43:46.860Z,2.83
2024-01-21T10:46:48.570Z,2.98
2024-01-21T10:49:50.393Z,2.85
2024-01-21T10:52:51.952Z,1.83
2024-01-21T10:55:53.597Z,1.83
2024-01-21T10:58:55.028Z,1.89
2024-01-21T11:01:56.493Z,1.59
2024-01-21T11:04:57.984Z,1.81
2024-01-21T11:08:03.067Z,2.56
2024-01-21T11:11:07.490Z,2.79
2024-01-21T11:14:28.622Z,2.89
2024-01-21T11:17:30.062Z,3.43
2024-01-21T11:20:31.719Z,3.58
2024-01-21T11:23:34.614Z,3.95
2024-01-21T11:26:40.010Z,4.35
2024-01-21T11:29:41.912Z,5.93
2024-01-21T11:32:43.486Z,6.31
2024-01-21T11:35:45.573Z,6.51
2024-01-21T11:38:47.061Z,6.90
2024-01-21T11:41:48.612Z,6.47
2024-01-21T11:44:50.038Z,5.49
2024-01-21T11:47:52.103Z,3.96
2024-01-21T11:50:53.570Z,3.77
2024-01-21T11:53:54.981Z,4.05
2024-01-21T11:56:56.398Z,3.41
2024-01-21T11:59:58.097Z,3.49
2024-01-21T12:02:59.491Z,3.38
2024-01-21T12:06:00.897Z,3.26
2024-01-21T12:09:04.282Z,3.42
2024-01-21T12:12:09.533Z,3.28
2024-01-21T12:15:11.003Z,3.28
2024-01-21T12:18:13.331Z,3.50
2024-01-21T12:21:14.808Z,3.65
2024-01-21T12:24:16.280Z,3.97
2024-01-21T12:27:17.816Z,4.05
2024-01-21T12:30:19.258Z,4.22
2024-01-21T12:33:21.103Z,4.12
2024-01-21T12:36:22.852Z,4.09
2024-01-21T12:39:24.901Z,4.00
2024-01-21T12:42:26.477Z,4.01
2024-01-21T12:45:27.953Z,4.03
2024-01-21T12:48:29.457Z,4.33
2024-01-21T12:51:33.425Z,4.78
2024-01-21T12:54:34.867Z,4.93
2024-01-21T12:57:36.349Z,4.86
2024-01-21T13:00:37.826Z,5.05
2024-01-21T13:03:39.558Z,5.18
2024-01-21T13:06:41.320Z,5.31
2024-01-21T13:09:42.922Z,5.36
2024-01-21T13:12:45.215Z,5.52
2024-01-21T13:15:46.695Z,5.31
2024-01-21T13:18:48.293Z,4.96
2024-01-21T13:21:49.872Z,5.07
2024-01-21T13:24:51.330Z,5.27
2024-01-21T13:28:15.491Z,5.40
2024-01-21T13:31:16.943Z,5.39
2024-01-21T13:34:18.504Z,5.48
2024-01-21T13:37:22.846Z,5.25
2024-01-21T13:40:26.887Z,4.94
2024-01-21T13:43:28.534Z,4.81
2024-01-21T13:46:29.961Z,4.55
2024-01-21T13:49:31.502Z,4.42
2024-01-21T13:52:32.983Z,4.43
2024-01-21T13:55:34.436Z,4.60
2024-01-21T13:58:36.186Z,4.76
2024-01-21T14:01:37.638Z,4.96
2024-01-21T14:04:39.118Z,5.01
2024-01-21T14:07:40.514Z,4.79
2024-01-21T14:10:41.934Z,4.87
2024-01-21T14:13:43.386Z,4.91
2024-01-21T14:16:44.813Z,4.80
2024-01-21T14:19:46.465Z,4.82
2024-01-21T14:22:48.233Z,5.03
2024-01-21T14:25:50.840Z,4.94
2024-01-21T14:28:52.485Z,5.10
2024-01-21T14:31:54.034Z,5.16
2024-01-21T14:34:55.487Z,5.33
2024-01-21T14:37:56.977Z,5.14
2024-01-21T14:40:58.876Z,5.11
2024-01-21T14:44:00.363Z,4.81
2024-01-21T14:47:01.806Z,4.95
2024-01-21T14:50:04.441Z,4.82
2024-01-21T14:53:06.133Z,4.66
2024-01-21T14:56:07.624Z,4.62
2024-01-21T14:59:09.068Z,4.51
2024-01-21T15:02:10.504Z,4.45
2024-01-21T15:05:12.016Z,4.17
2024-01-21T15:08:13.559Z,4.22
2024-01-21T15:11:14.982Z,4.07
2024-01-21T15:14:22.472Z,3.84
2024-01-21T15:17:23.868Z,3.72
2024-01-21T15:20:25.599Z,3.34
2024-01-21T15:23:27.170Z,3.15
2024-01-21T15:26:28.572Z,3.12
2024-01-21T15:29:30.043Z,2.95
2024-01-21T15:32:31.499Z,2.55
2024-01-21T15:35:32.939Z,2.34
2024-01-21T15:38:34.350Z,2.17
2024-01-21T15:41:35.800Z,2.12
2024-01-21T15:44:37.287Z,2.00
2024-01-21T15:47:41.959Z,1.80
2024-01-21T15:50:43.592Z,1.61
2024-01-21T15:53:44.997Z,1.60
2024-01-21T15:56:46.535Z,1.51
2024-01-21T15:59:48.104Z,1.67
2024-01-21T16:02:49.675Z,1.43
2024-01-21T16:05:51.153Z,1.43
2024-01-21T16:08:52.812Z,1.24
2024-01-21T16:11:54.183Z,1.10
2024-01-21T16:14:55.688Z,1.22
2024-01-21T16:17:59.549Z,1.15
2024-01-21T16:21:00.997Z,1.00
2024-01-21T16:24:02.416Z,0.84
2024-01-21T16:27:04.142Z,0.94
2024-01-21T16:30:05.770Z,0.89
2024-01-21T16:33:07.317Z,0.89
2024-01-21T16:36:08.859Z,0.94
2024-01-21T16:39:10.284Z,0.81
2024-01-21T16:42:12.785Z,0.97
2024-01-21T16:45:17.852Z,0.86
2024-01-21T16:48:20.693Z,0.78
2024-01-21T16:51:24.104Z,0.77
2024-01-21T16:54:26.175Z,0.71
2024-01-21T16:57:29.592Z,0.77
2024-01-21T17:00:31.776Z,0.76
2024-01-21T17:03:33.241Z,0.69
2024-01-21T17:06:35.558Z,0.69
2024-01-21T17:09:37.030Z,0.87
2024-01-21T17:12:38.865Z,0.88
2024-01-21T17:15:40.297Z,0.67
2024-01-21T17:18:42.709Z,0.60
2024-01-21T17:21:44.421Z,0.55
2024-01-21T17:24:46.801Z,0.48
2024-01-21T17:27:48.198Z,0.48
2024-01-21T17:30:50.477Z,0.38
2024-01-21T17:33:55.750Z,0.48
2024-01-21T17:36:57.544Z,0.40
2024-01-21T17:39:59.254Z,0.33
2024-01-21T17:43:00.781Z,0.27
2024-01-21T17:46:02.549Z,0.17
2024-01-21T17:49:05.204Z,0.05
2024-01-21T17:52:09.189Z,0.04
2024-01-21T17:55:10.712Z,0.07
2024-01-21T17:58:12.535Z,0.16
2024-01-21T18:01:14.107Z,0.23
2024-01-21T18:04:15.683Z,0.39
2024-01-21T18:07:17.112Z,0.63
2024-01-21T18:10:18.683Z,0.63
2024-01-21T18:13:20.095Z,0.63
2024-01-21T18:16:23.420Z,0.59
2024-01-21T18:19:25.040Z,0.67
2024-01-21T18:22:26.690Z,0.67
2024-01-21T18:25:28.488Z,0.73
2024-01-21T18:28:30.841Z,0.72
2024-01-21T18:31:32.548Z,0.78
2024-01-21T18:34:34.522Z,0.85
2024-01-21T18:37:36.783Z,0.77
2024-01-21T18:40:38.180Z,0.81
2024-01-21T18:43:39.724Z,0.71
2024-01-21T18:46:41.228Z,0.78
2024-01-21T18:49:42.956Z,0.73
2024-01-21T18:52:45.055Z,0.74
2024-01-21T18:55:48.574Z,0.68
2024-01-21T18:58:49.995Z,0.69
2024-01-21T19:01:51.690Z,0.75
2024-01-21T19:04:53.526Z,0.74
2024-01-21T19:07:55.095Z,0.69
2024-01-21T19:10:56.509Z,0.70
2024-01-21T19:13:58.182Z,0.70
2024-01-21T19:16:59.576Z,0.74
2024-01-21T19:20:01.508Z,0.80
2024-01-21T19:23:03.067Z,0.85
2024-01-21T19:26:06.380Z,0.71
2024-01-21T19:29:08.355Z,0.68
2024-01-21T19:32:09.949Z,0.56
2024-01-21T19:35:11.649Z,0.49
2024-01-21T19:38:13.244Z,0.41
2024-01-21T19:41:14.768Z,0.47
2024-01-21T19:44:16.315Z,0.40
2024-01-21T19:47:17.706Z,0.40
2024-01-21T19:50:19.188Z,0.40
2024-01-21T19:53:20.696Z,0.47
2024-01-21T19:56:22.184Z,0.45
2024-01-21T19:59:23.711Z,0.57
2024-01-21T20:02:25.196Z,0.57
2024-01-21T20:05:26.639Z,0.61
2024-01-21T20:08:28.795Z,0.57
2024-01-21T20:11:32.680Z,0.50
2024-01-21T20:14:34.179Z,0.49
2024-01-21T20:17:35.891Z,0.47
2024-01-21T20:20:37.452Z,0.50
2024-01-21T20:23:39.167Z,0.64
2024-01-21T20:26:43.846Z,0.67
2024-01-21T20:29:45.527Z,0.63
2024-01-21T20:32:47.208Z,0.65
2024-01-21T20:35:48.813Z,0.65
2024-01-21T20:38:50.281Z,0.75
2024-01-21T20:41:51.720Z,0.71
2024-01-21T20:44:58.672Z,0.68
2024-01-21T20:48:00.409Z,0.64
2024-01-21T20:51:02.006Z,0.61
2024-01-21T20:54:03.541Z,0.54
2024-01-21T20:57:06.056Z,0.44
2024-01-21T21:00:08.285Z,0.44
2024-01-21T21:03:10.584Z,0.34
2024-01-21T21:06:12.231Z,0.15
2024-01-21T21:09:13.721Z,0.04
2024-01-21T21:12:16.316Z,0.12
2024-01-21T21:15:17.830Z,0.01
2024-01-21T21:18:19.533Z,0.21
2024-01-21T21:21:21.172Z,0.24
2024-01-21T21:24:22.564Z,0.28
2024-01-21T21:27:23.976Z,0.50
2024-01-21T21:30:25.411Z,0.48
2024-01-21T21:33:28.839Z,0.52
2024-01-21T21:36:30.581Z,0.69
2024-01-21T21:39:32.040Z,0.88
2024-01-21T21:42:33.506Z,0.83
2024-01-21T21:45:35.159Z,0.69
2024-01-21T21:48:36.818Z,0.68
2024-01-21T21:51:39.579Z,0.74
2024-01-21T21:54:43.753Z,0.97
2024-01-21T21:57:46.909Z,0.95
2024-01-21T22:00:49.329Z,0.87
2024-01-21T22:03:51.389Z,0.85
2024-01-21T22:06:53.114Z,1.02
2024-01-21T22:09:54.705Z,1.18
2024-01-21T22:12:56.300Z,1.23
2024-01-21T22:15:59.062Z,1.39
2024-01-21T22:19:00.630Z,1.31
2024-01-21T22:22:02.624Z,1.58
2024-01-21T22:25:06.806Z,1.62
2024-01-21T22:28:08.296Z,1.62
2024-01-21T22:31:09.699Z,1.20
2024-01-21T22:34:11.234Z,0.83
2024-01-21T22:37:12.664Z,0.69
2024-01-21T22:40:14.169Z,0.61
2024-01-21T22:43:15.623Z,0.60
2024-01-21T22:46:17.379Z,0.39
2024-01-21T22:49:18.918Z,0.28
2024-01-21T22:52:20.510Z,0.16
2024-01-21T22:55:22.052Z,0.24
2024-01-21T22:58:28.852Z,0.19
2024-01-21T23:01:30.319Z,0.05
2024-01-21T23:04:31.853Z,-0.04
2024-01-21T23:07:33.380Z,0.04
2024-01-21T23:10:34.804Z,0.02
2024-01-21T23:13:36.222Z,0.12
2024-01-21T23:16:37.628Z,0.03
2024-01-21T23:19:39.053Z,-0.01
2024-01-21T23:22:41.003Z,-0.05
2024-01-21T23:25:42.536Z,-0.08
2024-01-21T23:28:43.948Z,-0.09
2024-01-21T23:31:46.194Z,-0.06
2024-01-21T23:34:48.543Z,0.05
2024-01-21T23:37:50.089Z,0.24
2024-01-21T23:40:51.818Z,0.18
2024-01-21T23:43:53.292Z,0.22
2024-01-21T23:46:54.793Z,0.08
2024-01-21T23:49:56.219Z,-0.07
2024-01-21T23:52:57.626Z,-0.07
2024-01-21T23:55:59.041Z,-0.17
2024-01-21T23:59:00.531Z,-0.19
